sensor_id;sensor_type;location;lat;lon;timestamp;P1;durP1;ratioP1;P2;durP2;ratioP2
31526;SDS011;18136;42.236;-73.040;2023-03-29T00:02:15;1.98;;;1.40;;
31526;SDS011;18136;42.236;-73.040;2023-03-29T00:04:42;1.85;;;1.48;;
31526;SDS011;18136;42.236;-73.040;2023-03-29T00:07:09;2.95;;;1.50;;
31526;SDS011;18136;42.236;-73.040;2023-03-29T00:09:35;3.90;;;1.38;;
31526;SDS011;18136;42.236;-73.040;2023-03-29T00:12:01;1.58;;;1.27;;
31526;SDS011;18136;42.236;-73.040;2023-03-29T00:14:27;2.08;;;1.52;;
31526;SDS011;18136;42.236;-73.040;2023-03-29T00:16:54;2.58;;;1.50;;
31526;SDS011;18136;42.236;-73.040;2023-03-29T00:19:21;1.50;;;1.40;;
31526;SDS011;18136;42.236;-73.040;2023-03-29T00:21:48;1.98;;;1.65;;
31526;SDS011;18136;42.236;-73.040;2023-03-29T00:24:14;3.53;;;1.63;;
31526;SDS011;18136;42.236;-73.040;2023-03-29T00:26:42;1.88;;;1.55;;
31526;SDS011;18136;42.236;-73.040;2023-03-29T00:29:08;1.60;;;1.50;;
31526;SDS011;18136;42.236;-73.040;2023-03-29T00:31:36;1.92;;;1.50;;
31526;SDS011;18136;42.236;-73.040;2023-03-29T00:34:02;3.20;;;1.30;;
31526;SDS011;18136;42.236;-73.040;2023-03-29T00:36:28;2.28;;;1.40;;
31526;SDS011;18136;42.236;-73.040;2023-03-29T00:38:55;2.70;;;1.40;;
31526;SDS011;18136;42.236;-73.040;2023-03-29T00:41:23;2.33;;;1.70;;
31526;SDS011;18136;42.236;-73.040;2023-03-29T00:44:01;4.05;;;1.50;;
31526;SDS011;18136;42.236;-73.040;2023-03-29T00:46:29;3.33;;;1.75;;
31526;SDS011;18136;42.236;-73.040;2023-03-29T00:49:17;1.58;;;1.48;;
31526;SDS011;18136;42.236;-73.040;2023-03-29T00:51:43;1.95;;;1.35;;
31526;SDS011;18136;42.236;-73.040;2023-03-29T00:54:11;2.13;;;1.70;;
31526;SDS011;18136;42.236;-73.040;2023-03-29T00:56:43;3.00;;;1.38;;
31526;SDS011;18136;42.236;-73.040;2023-03-29T01:01:47;3.28;;;1.45;;
31526;SDS011;18136;42.236;-73.040;2023-03-29T01:04:22;1.85;;;1.45;;
31526;SDS011;18136;42.236;-73.040;2023-03-29T01:07:12;2.08;;;1.67;;
31526;SDS011;18136;42.236;-73.040;2023-03-29T01:09:47;2.80;;;1.50;;
31526;SDS011;18136;42.236;-73.040;2023-03-29T01:12:32;2.78;;;1.70;;
31526;SDS011;18136;42.236;-73.040;2023-03-29T01:15:10;2.25;;;1.50;;
31526;SDS011;18136;42.236;-73.040;2023-03-29T01:17:39;1.90;;;1.50;;
31526;SDS011;18136;42.236;-73.040;2023-03-29T01:20:21;2.35;;;1.50;;
31526;SDS011;18136;42.236;-73.040;2023-03-29T01:23:20;2.25;;;1.70;;
31526;SDS011;18136;42.236;-73.040;2023-03-29T01:31:30;3.70;;;2.00;;
31526;SDS011;18136;42.236;-73.040;2023-03-29T01:34:15;2.42;;;1.60;;
31526;SDS011;18136;42.236;-73.040;2023-03-29T01:37:03;2.67;;;1.83;;
31526;SDS011;18136;42.236;-73.040;2023-03-29T01:39:37;2.90;;;1.50;;
31526;SDS011;18136;42.236;-73.040;2023-03-29T01:42:18;2.75;;;1.83;;
31526;SDS011;18136;42.236;-73.040;2023-03-29T01:45:06;1.83;;;1.50;;
31526;SDS011;18136;42.236;-73.040;2023-03-29T01:53:05;1.88;;;1.67;;
31526;SDS011;18136;42.236;-73.040;2023-03-29T01:55:42;1.60;;;1.45;;
31526;SDS011;18136;42.236;-73.040;2023-03-29T01:58:18;1.85;;;1.70;;
31526;SDS011;18136;42.236;-73.040;2023-03-29T02:00:48;2.83;;;1.70;;
31526;SDS011;18136;42.236;-73.040;2023-03-29T02:03:20;2.28;;;1.70;;
31526;SDS011;18136;42.236;-73.040;2023-03-29T02:05:52;2.70;;;1.90;;
31526;SDS011;18136;42.236;-73.040;2023-03-29T02:08:23;3.53;;;1.95;;
31526;SDS011;18136;42.236;-73.040;2023-03-29T02:10:51;3.25;;;1.98;;
31526;SDS011;18136;42.236;-73.040;2023-03-29T02:13:18;1.70;;;1.60;;
31526;SDS011;18136;42.236;-73.040;2023-03-29T02:15:46;2.05;;;1.70;;
31526;SDS011;18136;42.236;-73.040;2023-03-29T02:18:13;2.28;;;1.80;;
31526;SDS011;18136;42.236;-73.040;2023-03-29T02:20:42;2.15;;;1.77;;
31526;SDS011;18136;42.236;-73.040;2023-03-29T02:23:29;2.42;;;1.92;;
31526;SDS011;18136;42.236;-73.040;2023-03-29T02:25:59;5.93;;;2.40;;
31526;SDS011;18136;42.236;-73.040;2023-03-29T02:28:28;2.60;;;1.80;;
31526;SDS011;18136;42.236;-73.040;2023-03-29T02:36:46;2.10;;;1.90;;
31526;SDS011;18136;42.236;-73.040;2023-03-29T02:39:24;3.13;;;2.00;;
31526;SDS011;18136;42.236;-73.040;2023-03-29T02:41:56;2.83;;;2.10;;
31526;SDS011;18136;42.236;-73.040;2023-03-29T02:44:25;2.97;;;1.80;;
31526;SDS011;18136;42.236;-73.040;2023-03-29T02:47:00;3.80;;;2.13;;
31526;SDS011;18136;42.236;-73.040;2023-03-29T02:49:35;4.80;;;2.28;;
31526;SDS011;18136;42.236;-73.040;2023-03-29T02:52:04;3.13;;;2.20;;
31526;SDS011;18136;42.236;-73.040;2023-03-29T02:54:35;5.28;;;2.33;;
31526;SDS011;18136;42.236;-73.040;2023-03-29T02:57:08;2.40;;;1.77;;
31526;SDS011;18136;42.236;-73.040;2023-03-29T02:59:36;3.28;;;2.15;;
31526;SDS011;18136;42.236;-73.040;2023-03-29T03:02:05;3.70;;;1.67;;
31526;SDS011;18136;42.236;-73.040;2023-03-29T03:04:31;2.40;;;1.73;;
31526;SDS011;18136;42.236;-73.040;2023-03-29T03:06:59;5.70;;;1.70;;
31526;SDS011;18136;42.236;-73.040;2023-03-29T03:09:26;2.00;;;1.80;;
31526;SDS011;18136;42.236;-73.040;2023-03-29T03:11:52;3.25;;;1.80;;
31526;SDS011;18136;42.236;-73.040;2023-03-29T03:14:20;1.63;;;1.52;;
31526;SDS011;18136;42.236;-73.040;2023-03-29T03:16:49;3.42;;;1.88;;
31526;SDS011;18136;42.236;-73.040;2023-03-29T03:19:16;3.22;;;2.10;;
31526;SDS011;18136;42.236;-73.040;2023-03-29T03:21:43;3.05;;;2.28;;
31526;SDS011;18136;42.236;-73.040;2023-03-29T03:24:11;4.25;;;2.08;;
31526;SDS011;18136;42.236;-73.040;2023-03-29T03:26:37;3.42;;;1.98;;
31526;SDS011;18136;42.236;-73.040;2023-03-29T03:29:04;3.85;;;2.00;;
31526;SDS011;18136;42.236;-73.040;2023-03-29T03:31:31;2.80;;;2.40;;
31526;SDS011;18136;42.236;-73.040;2023-03-29T03:34:00;2.15;;;1.80;;
31526;SDS011;18136;42.236;-73.040;2023-03-29T03:36:29;2.60;;;2.08;;
31526;SDS011;18136;42.236;-73.040;2023-03-29T03:38:59;2.60;;;2.10;;
31526;SDS011;18136;42.236;-73.040;2023-03-29T03:41:26;2.70;;;1.63;;
31526;SDS011;18136;42.236;-73.040;2023-03-29T03:43:52;4.60;;;2.25;;
31526;SDS011;18136;42.236;-73.040;2023-03-29T03:46:19;3.45;;;2.42;;
31526;SDS011;18136;42.236;-73.040;2023-03-29T03:48:45;3.35;;;2.17;;
31526;SDS011;18136;42.236;-73.040;2023-03-29T03:51:12;5.07;;;2.00;;
31526;SDS011;18136;42.236;-73.040;2023-03-29T03:53:38;2.72;;;2.00;;
31526;SDS011;18136;42.236;-73.040;2023-03-29T03:56:07;3.42;;;2.22;;
31526;SDS011;18136;42.236;-73.040;2023-03-29T03:58:38;3.28;;;1.90;;
31526;SDS011;18136;42.236;-73.040;2023-03-29T04:01:04;2.35;;;1.90;;
31526;SDS011;18136;42.236;-73.040;2023-03-29T04:03:32;3.03;;;2.05;;
31526;SDS011;18136;42.236;-73.040;2023-03-29T04:05:59;4.97;;;2.10;;
31526;SDS011;18136;42.236;-73.040;2023-03-29T04:08:26;3.45;;;2.10;;
31526;SDS011;18136;42.236;-73.040;2023-03-29T04:10:56;5.47;;;2.47;;
31526;SDS011;18136;42.236;-73.040;2023-03-29T04:13:23;2.15;;;1.95;;
31526;SDS011;18136;42.236;-73.040;2023-03-29T04:15:51;2.95;;;1.95;;
31526;SDS011;18136;42.236;-73.040;2023-03-29T04:18:21;2.35;;;2.15;;
31526;SDS011;18136;42.236;-73.040;2023-03-29T04:20:48;2.50;;;2.20;;
31526;SDS011;18136;42.236;-73.040;2023-03-29T04:23:15;2.05;;;1.85;;
31526;SDS011;18136;42.236;-73.040;2023-03-29T04:25:41;2.97;;;2.67;;
31526;SDS011;18136;42.236;-73.040;2023-03-29T04:28:08;3.60;;;2.22;;
31526;SDS011;18136;42.236;-73.040;2023-03-29T04:30:35;2.03;;;1.67;;
31526;SDS011;18136;42.236;-73.040;2023-03-29T04:33:02;2.95;;;2.08;;
31526;SDS011;18136;42.236;-73.040;2023-03-29T04:35:28;3.85;;;2.40;;
31526;SDS011;18136;42.236;-73.040;2023-03-29T04:37:54;5.22;;;2.25;;
31526;SDS011;18136;42.236;-73.040;2023-03-29T04:40:21;3.10;;;2.10;;
31526;SDS011;18136;42.236;-73.040;2023-03-29T04:42:47;2.45;;;2.00;;
31526;SDS011;18136;42.236;-73.040;2023-03-29T04:45:13;3.00;;;2.42;;
31526;SDS011;18136;42.236;-73.040;2023-03-29T04:47:42;2.65;;;2.42;;
31526;SDS011;18136;42.236;-73.040;2023-03-29T04:50:09;4.15;;;2.25;;
31526;SDS011;18136;42.236;-73.040;2023-03-29T04:52:36;3.08;;;2.50;;
31526;SDS011;18136;42.236;-73.040;2023-03-29T04:55:03;3.05;;;2.33;;
31526;SDS011;18136;42.236;-73.040;2023-03-29T04:57:31;3.28;;;2.50;;
31526;SDS011;18136;42.236;-73.040;2023-03-29T04:59:58;4.75;;;2.67;;
31526;SDS011;18136;42.236;-73.040;2023-03-29T05:02:24;2.97;;;2.60;;
31526;SDS011;18136;42.236;-73.040;2023-03-29T05:04:50;3.75;;;2.70;;
31526;SDS011;18136;42.236;-73.040;2023-03-29T05:07:16;7.55;;;2.67;;
31526;SDS011;18136;42.236;-73.040;2023-03-29T05:09:43;2.92;;;2.50;;
31526;SDS011;18136;42.236;-73.040;2023-03-29T05:12:09;3.20;;;2.35;;
31526;SDS011;18136;42.236;-73.040;2023-03-29T05:14:37;2.67;;;2.22;;
31526;SDS011;18136;42.236;-73.040;2023-03-29T05:17:03;2.90;;;2.40;;
31526;SDS011;18136;42.236;-73.040;2023-03-29T05:19:30;4.50;;;2.78;;
31526;SDS011;18136;42.236;-73.040;2023-03-29T05:21:57;2.58;;;2.17;;
31526;SDS011;18136;42.236;-73.040;2023-03-29T05:24:24;5.47;;;2.70;;
31526;SDS011;18136;42.236;-73.040;2023-03-29T05:26:50;3.25;;;2.92;;
31526;SDS011;18136;42.236;-73.040;2023-03-29T05:29:16;5.60;;;2.30;;
31526;SDS011;18136;42.236;-73.040;2023-03-29T05:31:43;4.30;;;2.60;;
31526;SDS011;18136;42.236;-73.040;2023-03-29T05:34:09;5.22;;;2.50;;
31526;SDS011;18136;42.236;-73.040;2023-03-29T05:36:35;4.03;;;3.05;;
31526;SDS011;18136;42.236;-73.040;2023-03-29T05:39:03;4.20;;;2.55;;
31526;SDS011;18136;42.236;-73.040;2023-03-29T05:41:30;4.43;;;2.80;;
31526;SDS011;18136;42.236;-73.040;2023-03-29T05:43:57;6.05;;;2.30;;
31526;SDS011;18136;42.236;-73.040;2023-03-29T05:46:23;2.70;;;2.38;;
31526;SDS011;18136;42.236;-73.040;2023-03-29T05:48:50;4.63;;;2.72;;
31526;SDS011;18136;42.236;-73.040;2023-03-29T05:51:16;2.58;;;2.30;;
31526;SDS011;18136;42.236;-73.040;2023-03-29T05:53:43;2.85;;;2.35;;
31526;SDS011;18136;42.236;-73.040;2023-03-29T05:56:09;2.85;;;2.42;;
31526;SDS011;18136;42.236;-73.040;2023-03-29T05:58:40;3.25;;;2.47;;
31526;SDS011;18136;42.236;-73.040;2023-03-29T06:01:10;4.15;;;2.80;;
31526;SDS011;18136;42.236;-73.040;2023-03-29T06:03:39;4.72;;;2.50;;
31526;SDS011;18136;42.236;-73.040;2023-03-29T06:06:06;3.30;;;2.72;;
31526;SDS011;18136;42.236;-73.040;2023-03-29T06:08:35;6.30;;;2.53;;
31526;SDS011;18136;42.236;-73.040;2023-03-29T06:11:03;4.00;;;2.47;;
31526;SDS011;18136;42.236;-73.040;2023-03-29T06:13:32;4.35;;;2.50;;
31526;SDS011;18136;42.236;-73.040;2023-03-29T06:15:59;3.75;;;2.63;;
31526;SDS011;18136;42.236;-73.040;2023-03-29T06:18:25;2.75;;;2.55;;
31526;SDS011;18136;42.236;-73.040;2023-03-29T06:20:52;3.15;;;2.47;;
31526;SDS011;18136;42.236;-73.040;2023-03-29T06:23:18;3.60;;;2.60;;
31526;SDS011;18136;42.236;-73.040;2023-03-29T06:25:45;4.00;;;2.42;;
31526;SDS011;18136;42.236;-73.040;2023-03-29T06:28:12;3.90;;;2.53;;
31526;SDS011;18136;42.236;-73.040;2023-03-29T06:30:39;4.28;;;2.40;;
31526;SDS011;18136;42.236;-73.040;2023-03-29T06:33:08;3.05;;;2.00;;
31526;SDS011;18136;42.236;-73.040;2023-03-29T06:35:35;4.05;;;2.30;;
31526;SDS011;18136;42.236;-73.040;2023-03-29T06:38:02;3.72;;;2.60;;
31526;SDS011;18136;42.236;-73.040;2023-03-29T06:40:29;3.13;;;2.33;;
31526;SDS011;18136;42.236;-73.040;2023-03-29T06:42:56;3.13;;;2.35;;
31526;SDS011;18136;42.236;-73.040;2023-03-29T06:45:24;3.08;;;2.25;;
31526;SDS011;18136;42.236;-73.040;2023-03-29T06:47:51;3.03;;;2.60;;
31526;SDS011;18136;42.236;-73.040;2023-03-29T06:50:18;3.65;;;2.78;;
31526;SDS011;18136;42.236;-73.040;2023-03-29T06:52:45;6.53;;;2.67;;
31526;SDS011;18136;42.236;-73.040;2023-03-29T06:55:12;3.60;;;2.72;;
31526;SDS011;18136;42.236;-73.040;2023-03-29T06:57:38;3.25;;;2.95;;
31526;SDS011;18136;42.236;-73.040;2023-03-29T07:00:05;3.42;;;2.72;;
31526;SDS011;18136;42.236;-73.040;2023-03-29T07:02:44;3.05;;;2.55;;
31526;SDS011;18136;42.236;-73.040;2023-03-29T07:05:10;2.63;;;2.30;;
31526;SDS011;18136;42.236;-73.040;2023-03-29T07:07:41;2.63;;;2.22;;
31526;SDS011;18136;42.236;-73.040;2023-03-29T07:10:21;4.35;;;2.83;;
31526;SDS011;18136;42.236;-73.040;2023-03-29T07:12:51;4.80;;;2.33;;
31526;SDS011;18136;42.236;-73.040;2023-03-29T07:15:17;4.13;;;2.90;;
31526;SDS011;18136;42.236;-73.040;2023-03-29T07:17:46;5.82;;;3.10;;
31526;SDS011;18136;42.236;-73.040;2023-03-29T07:20:13;4.57;;;2.65;;
31526;SDS011;18136;42.236;-73.040;2023-03-29T07:22:40;3.88;;;2.30;;
31526;SDS011;18136;42.236;-73.040;2023-03-29T07:25:08;2.97;;;2.22;;
31526;SDS011;18136;42.236;-73.040;2023-03-29T07:27:36;3.53;;;2.58;;
31526;SDS011;18136;42.236;-73.040;2023-03-29T07:30:08;3.78;;;2.78;;
31526;SDS011;18136;42.236;-73.040;2023-03-29T07:32:37;3.78;;;2.90;;
31526;SDS011;18136;42.236;-73.040;2023-03-29T07:35:05;5.50;;;2.83;;
31526;SDS011;18136;42.236;-73.040;2023-03-29T07:37:34;4.22;;;3.22;;
31526;SDS011;18136;42.236;-73.040;2023-03-29T07:40:05;3.10;;;2.50;;
31526;SDS011;18136;42.236;-73.040;2023-03-29T07:42:40;5.63;;;2.83;;
31526;SDS011;18136;42.236;-73.040;2023-03-29T07:45:08;4.22;;;2.55;;
31526;SDS011;18136;42.236;-73.040;2023-03-29T07:47:35;5.85;;;2.83;;
31526;SDS011;18136;42.236;-73.040;2023-03-29T07:50:03;3.30;;;2.72;;
31526;SDS011;18136;42.236;-73.040;2023-03-29T07:52:33;3.83;;;2.83;;
31526;SDS011;18136;42.236;-73.040;2023-03-29T07:55:00;3.22;;;2.60;;
31526;SDS011;18136;42.236;-73.040;2023-03-29T07:57:26;3.20;;;2.30;;
31526;SDS011;18136;42.236;-73.040;2023-03-29T07:59:52;5.10;;;2.90;;
31526;SDS011;18136;42.236;-73.040;2023-03-29T08:02:19;4.55;;;3.35;;
31526;SDS011;18136;42.236;-73.040;2023-03-29T08:04:45;2.60;;;2.40;;
31526;SDS011;18136;42.236;-73.040;2023-03-29T08:07:12;4.28;;;2.70;;
31526;SDS011;18136;42.236;-73.040;2023-03-29T08:09:39;4.20;;;2.40;;
31526;SDS011;18136;42.236;-73.040;2023-03-29T08:12:07;4.85;;;3.20;;
31526;SDS011;18136;42.236;-73.040;2023-03-29T08:14:33;3.88;;;2.55;;
31526;SDS011;18136;42.236;-73.040;2023-03-29T08:17:00;3.97;;;2.75;;
31526;SDS011;18136;42.236;-73.040;2023-03-29T08:19:26;4.85;;;3.00;;
31526;SDS011;18136;42.236;-73.040;2023-03-29T08:21:55;4.55;;;3.15;;
31526;SDS011;18136;42.236;-73.040;2023-03-29T08:24:21;3.40;;;2.70;;
31526;SDS011;18136;42.236;-73.040;2023-03-29T08:26:47;2.97;;;2.50;;
31526;SDS011;18136;42.236;-73.040;2023-03-29T08:29:14;5.57;;;2.17;;
31526;SDS011;18136;42.236;-73.040;2023-03-29T08:31:40;3.65;;;2.80;;
31526;SDS011;18136;42.236;-73.040;2023-03-29T08:34:06;3.95;;;3.10;;
31526;SDS011;18136;42.236;-73.040;2023-03-29T08:36:33;5.35;;;2.72;;
31526;SDS011;18136;42.236;-73.040;2023-03-29T08:38:59;3.58;;;2.60;;
31526;SDS011;18136;42.236;-73.040;2023-03-29T08:50:20;9.30;;;2.60;;
31526;SDS011;18136;42.236;-73.040;2023-03-29T08:52:56;5.78;;;3.05;;
31526;SDS011;18136;42.236;-73.040;2023-03-29T08:55:35;6.18;;;2.65;;
31526;SDS011;18136;42.236;-73.040;2023-03-29T08:58:07;6.80;;;3.30;;
31526;SDS011;18136;42.236;-73.040;2023-03-29T09:00:46;3.53;;;2.60;;
31526;SDS011;18136;42.236;-73.040;2023-03-29T09:05:54;3.50;;;2.55;;
31526;SDS011;18136;42.236;-73.040;2023-03-29T09:08:27;4.50;;;2.67;;
31526;SDS011;18136;42.236;-73.040;2023-03-29T09:16:27;3.85;;;2.90;;
31526;SDS011;18136;42.236;-73.040;2023-03-29T09:19:09;5.05;;;3.20;;
31526;SDS011;18136;42.236;-73.040;2023-03-29T09:21:55;6.38;;;3.63;;
31526;SDS011;18136;42.236;-73.040;2023-03-29T09:24:40;4.47;;;3.05;;
31526;SDS011;18136;42.236;-73.040;2023-03-29T09:27:27;6.60;;;3.05;;
31526;SDS011;18136;42.236;-73.040;2023-03-29T09:35:29;5.85;;;3.15;;
31526;SDS011;18136;42.236;-73.040;2023-03-29T09:38:11;4.03;;;3.10;;
31526;SDS011;18136;42.236;-73.040;2023-03-29T09:40:46;6.75;;;3.10;;
31526;SDS011;18136;42.236;-73.040;2023-03-29T09:43:18;9.77;;;3.42;;
31526;SDS011;18136;42.236;-73.040;2023-03-29T09:45:57;7.70;;;3.42;;
31526;SDS011;18136;42.236;-73.040;2023-03-29T09:48:28;6.82;;;3.90;;
31526;SDS011;18136;42.236;-73.040;2023-03-29T09:51:01;7.57;;;3.17;;
31526;SDS011;18136;42.236;-73.040;2023-03-29T09:53:32;4.55;;;3.50;;
31526;SDS011;18136;42.236;-73.040;2023-03-29T09:55:59;4.40;;;3.58;;
31526;SDS011;18136;42.236;-73.040;2023-03-29T09:58:27;4.70;;;3.45;;
31526;SDS011;18136;42.236;-73.040;2023-03-29T10:01:00;3.80;;;2.90;;
31526;SDS011;18136;42.236;-73.040;2023-03-29T10:03:30;4.90;;;2.92;;
31526;SDS011;18136;42.236;-73.040;2023-03-29T10:05:59;4.85;;;3.00;;
31526;SDS011;18136;42.236;-73.040;2023-03-29T10:08:28;5.05;;;3.35;;
31526;SDS011;18136;42.236;-73.040;2023-03-29T10:11:00;3.33;;;2.72;;
31526;SDS011;18136;42.236;-73.040;2023-03-29T10:13:32;5.35;;;2.92;;
31526;SDS011;18136;42.236;-73.040;2023-03-29T10:16:05;3.65;;;2.90;;
31526;SDS011;18136;42.236;-73.040;2023-03-29T10:18:38;3.45;;;2.88;;
31526;SDS011;18136;42.236;-73.040;2023-03-29T10:21:08;4.55;;;2.78;;
31526;SDS011;18136;42.236;-73.040;2023-03-29T10:23:38;4.25;;;2.97;;
31526;SDS011;18136;42.236;-73.040;2023-03-29T10:26:08;4.32;;;2.65;;
31526;SDS011;18136;42.236;-73.040;2023-03-29T10:28:44;4.43;;;2.80;;
31526;SDS011;18136;42.236;-73.040;2023-03-29T10:31:15;3.20;;;2.70;;
31526;SDS011;18136;42.236;-73.040;2023-03-29T10:33:44;4.03;;;3.00;;
31526;SDS011;18136;42.236;-73.040;2023-03-29T10:36:22;10.00;;;2.80;;
31526;SDS011;18136;42.236;-73.040;2023-03-29T10:38:51;3.90;;;2.70;;
31526;SDS011;18136;42.236;-73.040;2023-03-29T10:41:24;5.03;;;3.63;;
31526;SDS011;18136;42.236;-73.040;2023-03-29T10:43:52;7.30;;;3.15;;
31526;SDS011;18136;42.236;-73.040;2023-03-29T10:46:21;6.28;;;3.35;;
31526;SDS011;18136;42.236;-73.040;2023-03-29T10:48:48;5.63;;;3.50;;
31526;SDS011;18136;42.236;-73.040;2023-03-29T10:51:22;4.30;;;2.70;;
31526;SDS011;18136;42.236;-73.040;2023-03-29T10:53:51;5.68;;;3.00;;
31526;SDS011;18136;42.236;-73.040;2023-03-29T11:04:46;3.42;;;2.55;;
31526;SDS011;18136;42.236;-73.040;2023-03-29T11:07:33;4.55;;;2.60;;
31526;SDS011;18136;42.236;-73.040;2023-03-29T11:16:19;8.27;;;3.17;;
31526;SDS011;18136;42.236;-73.040;2023-03-29T11:19:12;8.30;;;3.50;;
31526;SDS011;18136;42.236;-73.040;2023-03-29T11:24:58;3.95;;;2.53;;
31526;SDS011;18136;42.236;-73.040;2023-03-29T11:28:00;4.07;;;2.45;;
31526;SDS011;18136;42.236;-73.040;2023-03-29T11:30:45;7.57;;;3.05;;
31526;SDS011;18136;42.236;-73.040;2023-03-29T11:33:32;5.32;;;2.78;;
31526;SDS011;18136;42.236;-73.040;2023-03-29T11:38:38;5.70;;;2.78;;
31526;SDS011;18136;42.236;-73.040;2023-03-29T11:41:20;2.53;;;2.33;;
31526;SDS011;18136;42.236;-73.040;2023-03-29T11:43:53;6.78;;;3.10;;
31526;SDS011;18136;42.236;-73.040;2023-03-29T11:51:30;2.80;;;2.50;;
31526;SDS011;18136;42.236;-73.040;2023-03-29T11:56:54;4.68;;;2.63;;
31526;SDS011;18136;42.236;-73.040;2023-03-29T11:59:35;5.90;;;2.80;;
31526;SDS011;18136;42.236;-73.040;2023-03-29T12:04:41;4.13;;;2.33;;
31526;SDS011;18136;42.236;-73.040;2023-03-29T12:07:31;4.15;;;2.70;;
31526;SDS011;18136;42.236;-73.040;2023-03-29T12:10:12;4.30;;;2.95;;
31526;SDS011;18136;42.236;-73.040;2023-03-29T12:12:44;3.25;;;2.50;;
31526;SDS011;18136;42.236;-73.040;2023-03-29T12:15:31;5.43;;;2.25;;
31526;SDS011;18136;42.236;-73.040;2023-03-29T12:18:20;7.30;;;2.30;;
31526;SDS011;18136;42.236;-73.040;2023-03-29T12:21:01;3.10;;;2.20;;
31526;SDS011;18136;42.236;-73.040;2023-03-29T12:23:31;2.92;;;2.00;;
31526;SDS011;18136;42.236;-73.040;2023-03-29T12:31:38;4.20;;;2.00;;
31526;SDS011;18136;42.236;-73.040;2023-03-29T12:37:14;2.90;;;2.10;;
31526;SDS011;18136;42.236;-73.040;2023-03-29T12:40:15;3.17;;;1.48;;
31526;SDS011;18136;42.236;-73.040;2023-03-29T12:43:04;2.97;;;1.98;;
31526;SDS011;18136;42.236;-73.040;2023-03-29T12:45:42;2.05;;;1.60;;
31526;SDS011;18136;42.236;-73.040;2023-03-29T12:48:21;2.58;;;1.70;;
31526;SDS011;18136;42.236;-73.040;2023-03-29T12:50:52;2.38;;;2.03;;
31526;SDS011;18136;42.236;-73.040;2023-03-29T12:53:32;2.13;;;1.65;;
31526;SDS011;18136;42.236;-73.040;2023-03-29T12:58:47;1.63;;;1.50;;
31526;SDS011;18136;42.236;-73.040;2023-03-29T13:01:33;2.03;;;1.60;;
31526;SDS011;18136;42.236;-73.040;2023-03-29T13:04:12;2.20;;;1.33;;
31526;SDS011;18136;42.236;-73.040;2023-03-29T13:09:22;1.88;;;1.45;;
31526;SDS011;18136;42.236;-73.040;2023-03-29T13:12:02;3.55;;;1.85;;
31526;SDS011;18136;42.236;-73.040;2023-03-29T13:14:34;2.45;;;1.38;;
31526;SDS011;18136;42.236;-73.040;2023-03-29T13:17:10;2.30;;;1.73;;
31526;SDS011;18136;42.236;-73.040;2023-03-29T13:39:03;2.25;;;1.65;;
31526;SDS011;18136;42.236;-73.040;2023-03-29T13:44:03;3.05;;;1.75;;
31526;SDS011;18136;42.236;-73.040;2023-03-29T13:46:42;2.83;;;1.65;;
31526;SDS011;18136;42.236;-73.040;2023-03-29T13:49:24;1.90;;;1.63;;
31526;SDS011;18136;42.236;-73.040;2023-03-29T13:54:28;1.77;;;1.60;;
31526;SDS011;18136;42.236;-73.040;2023-03-29T14:02:46;1.85;;;1.48;;
31526;SDS011;18136;42.236;-73.040;2023-03-29T14:07:41;2.10;;;1.55;;
31526;SDS011;18136;42.236;-73.040;2023-03-29T14:10:15;2.25;;;1.60;;
31526;SDS011;18136;42.236;-73.040;2023-03-29T14:12:50;2.03;;;1.73;;
31526;SDS011;18136;42.236;-73.040;2023-03-29T14:15:20;4.05;;;1.95;;
31526;SDS011;18136;42.236;-73.040;2023-03-29T14:17:56;3.30;;;1.70;;
31526;SDS011;18136;42.236;-73.040;2023-03-29T14:20:23;2.20;;;1.63;;
31526;SDS011;18136;42.236;-73.040;2023-03-29T14:22:50;3.95;;;1.67;;
31526;SDS011;18136;42.236;-73.040;2023-03-29T14:25:17;4.15;;;1.67;;
31526;SDS011;18136;42.236;-73.040;2023-03-29T14:27:46;4.00;;;2.25;;
31526;SDS011;18136;42.236;-73.040;2023-03-29T14:30:26;4.07;;;2.00;;
31526;SDS011;18136;42.236;-73.040;2023-03-29T14:32:53;2.03;;;1.60;;
31526;SDS011;18136;42.236;-73.040;2023-03-29T14:35:26;3.90;;;1.77;;
31526;SDS011;18136;42.236;-73.040;2023-03-29T14:37:56;1.50;;;1.40;;
31526;SDS011;18136;42.236;-73.040;2023-03-29T14:40:23;1.80;;;1.45;;
31526;SDS011;18136;42.236;-73.040;2023-03-29T14:42:51;1.77;;;1.58;;
31526;SDS011;18136;42.236;-73.040;2023-03-29T14:45:20;2.55;;;1.60;;
31526;SDS011;18136;42.236;-73.040;2023-03-29T14:47:47;2.63;;;1.88;;
31526;SDS011;18136;42.236;-73.040;2023-03-29T14:50:18;2.45;;;1.40;;
31526;SDS011;18136;42.236;-73.040;2023-03-29T14:52:51;3.78;;;1.60;;
31526;SDS011;18136;42.236;-73.040;2023-03-29T14:55:18;2.63;;;1.92;;
31526;SDS011;18136;42.236;-73.040;2023-03-29T14:57:48;1.83;;;1.50;;
31526;SDS011;18136;42.236;-73.040;2023-03-29T15:00:20;2.00;;;1.65;;
31526;SDS011;18136;42.236;-73.040;2023-03-29T15:02:49;2.53;;;1.40;;
31526;SDS011;18136;42.236;-73.040;2023-03-29T15:07:58;1.53;;;1.37;;
31526;SDS011;18136;42.236;-73.040;2023-03-29T15:10:25;1.88;;;1.42;;
31526;SDS011;18136;42.236;-73.040;2023-03-29T15:12:52;2.08;;;1.40;;
31526;SDS011;18136;42.236;-73.040;2023-03-29T15:15:18;1.73;;;1.42;;
31526;SDS011;18136;42.236;-73.040;2023-03-29T15:17:47;1.42;;;1.25;;
31526;SDS011;18136;42.236;-73.040;2023-03-29T15:20:24;1.55;;;1.20;;
31526;SDS011;18136;42.236;-73.040;2023-03-29T15:23:00;5.78;;;1.40;;
31526;SDS011;18136;42.236;-73.040;2023-03-29T15:25:36;2.50;;;1.65;;
31526;SDS011;18136;42.236;-73.040;2023-03-29T15:28:03;1.50;;;1.15;;
31526;SDS011;18136;42.236;-73.040;2023-03-29T15:30:35;2.17;;;1.30;;
31526;SDS011;18136;42.236;-73.040;2023-03-29T15:33:07;3.15;;;1.65;;
31526;SDS011;18136;42.236;-73.040;2023-03-29T15:35:40;1.38;;;1.17;;
31526;SDS011;18136;42.236;-73.040;2023-03-29T15:38:11;1.17;;;1.08;;
31526;SDS011;18136;42.236;-73.040;2023-03-29T15:40:37;4.53;;;1.58;;
31526;SDS011;18136;42.236;-73.040;2023-03-29T15:43:04;1.45;;;1.35;;
31526;SDS011;18136;42.236;-73.040;2023-03-29T15:45:30;7.50;;;1.48;;
31526;SDS011;18136;42.236;-73.040;2023-03-29T15:47:56;1.90;;;1.33;;
31526;SDS011;18136;42.236;-73.040;2023-03-29T15:50:26;1.88;;;1.40;;
31526;SDS011;18136;42.236;-73.040;2023-03-29T15:52:52;1.88;;;1.58;;
31526;SDS011;18136;42.236;-73.040;2023-03-29T15:55:23;2.15;;;1.40;;
31526;SDS011;18136;42.236;-73.040;2023-03-29T15:57:53;1.75;;;1.40;;
31526;SDS011;18136;42.236;-73.040;2023-03-29T16:00:22;2.38;;;1.60;;
31526;SDS011;18136;42.236;-73.040;2023-03-29T16:02:49;2.00;;;1.13;;
31526;SDS011;18136;42.236;-73.040;2023-03-29T16:05:15;2.05;;;1.25;;
31526;SDS011;18136;42.236;-73.040;2023-03-29T16:07:42;2.08;;;1.35;;
31526;SDS011;18136;42.236;-73.040;2023-03-29T16:10:08;1.40;;;1.30;;
31526;SDS011;18136;42.236;-73.040;2023-03-29T16:12:34;1.85;;;1.20;;
31526;SDS011;18136;42.236;-73.040;2023-03-29T16:15:20;1.83;;;1.35;;
31526;SDS011;18136;42.236;-73.040;2023-03-29T16:20:15;1.48;;;1.25;;
31526;SDS011;18136;42.236;-73.040;2023-03-29T16:22:44;1.98;;;1.38;;
31526;SDS011;18136;42.236;-73.040;2023-03-29T16:25:13;1.48;;;1.13;;
31526;SDS011;18136;42.236;-73.040;2023-03-29T16:27:42;2.03;;;1.35;;
31526;SDS011;18136;42.236;-73.040;2023-03-29T16:30:08;2.05;;;1.50;;
31526;SDS011;18136;42.236;-73.040;2023-03-29T16:32:35;2.28;;;1.40;;
31526;SDS011;18136;42.236;-73.040;2023-03-29T16:35:09;3.58;;;1.40;;
31526;SDS011;18136;42.236;-73.040;2023-03-29T16:37:50;1.58;;;1.00;;
31526;SDS011;18136;42.236;-73.040;2023-03-29T16:40:17;2.20;;;1.10;;
31526;SDS011;18136;42.236;-73.040;2023-03-29T16:42:43;5.80;;;1.75;;
31526;SDS011;18136;42.236;-73.040;2023-03-29T16:45:10;1.67;;;1.30;;
31526;SDS011;18136;42.236;-73.040;2023-03-29T16:47:38;3.80;;;1.60;;